createdAt,value
2024-05-09T00:00:31.101Z,14.71
2024-05-09T00:03:03.622Z,14.78
2024-05-09T00:05:30.696Z,14.18
2024-05-09T00:07:57.783Z,13.73
2024-05-09T00:10:33.172Z,13.82
2024-05-09T00:13:03.836Z,13.78
2024-05-09T00:15:30.852Z,13.69
2024-05-09T00:17:58.010Z,13.69
2024-05-09T00:20:33.105Z,13.69
2024-05-09T00:23:05.133Z,14.19
2024-05-09T00:25:32.153Z,14.08
2024-05-09T00:27:59.145Z,14.17
2024-05-09T00:30:33.428Z,14.07
2024-05-09T00:33:03.846Z,14.39
2024-05-09T00:35:31.482Z,14.46
2024-05-09T00:37:58.543Z,14.35
2024-05-09T00:40:35.306Z,14.68
2024-05-09T00:43:06.374Z,14.41
2024-05-09T00:45:33.448Z,14.25
2024-05-09T00:48:00.852Z,13.80
2024-05-09T00:50:35.582Z,13.50
2024-05-09T00:53:04.314Z,13.80
2024-05-09T00:55:31.317Z,13.62
2024-05-09T00:57:58.298Z,13.64
2024-05-09T01:00:31.718Z,13.79
2024-05-09T01:03:05.743Z,14.07
2024-05-09T01:05:33.258Z,13.83
2024-05-09T01:08:00.435Z,13.76
2024-05-09T01:10:33.785Z,13.74
2024-05-09T01:13:02.359Z,13.61
2024-05-09T01:15:29.350Z,13.75
2024-05-09T01:17:56.865Z,13.66
2024-05-09T01:20:36.346Z,13.47
2024-05-09T01:23:08.489Z,13.51
2024-05-09T01:25:35.809Z,13.76
2024-05-09T01:28:02.926Z,13.96
2024-05-09T01:30:34.801Z,13.79
2024-05-09T01:33:04.828Z,14.37
2024-05-09T01:35:32.541Z,14.74
2024-05-09T01:37:59.589Z,14.82
2024-05-09T01:40:36.234Z,14.71
2024-05-09T01:43:06.257Z,14.35
2024-05-09T01:45:33.391Z,14.06
2024-05-09T01:48:00.897Z,14.03
2024-05-09T01:50:37.692Z,13.70
2024-05-09T01:53:08.219Z,13.98
2024-05-09T01:55:35.353Z,13.56
2024-05-09T01:58:02.356Z,13.88
2024-05-09T02:00:38.037Z,13.98
2024-05-09T02:03:08.506Z,13.45
2024-05-09T02:05:35.873Z,13.72
2024-05-09T02:08:03.085Z,14.09
2024-05-09T02:10:32.837Z,14.12
2024-05-09T02:13:00.532Z,14.30
2024-05-09T02:15:27.523Z,14.43
2024-05-09T02:17:54.765Z,14.33
2024-05-09T02:20:30.475Z,14.09
2024-05-09T02:23:02.961Z,13.94
2024-05-09T02:25:30.087Z,14.23
2024-05-09T02:27:57.125Z,14.34
2024-05-09T02:30:31.088Z,14.51
2024-05-09T02:33:06.228Z,14.75
2024-05-09T02:35:33.428Z,14.95
2024-05-09T02:38:00.746Z,14.79
2024-05-09T02:40:35.826Z,14.97
2024-05-09T02:43:05.493Z,15.09
2024-05-09T02:45:32.865Z,15.17
2024-05-09T02:48:00.722Z,15.15
2024-05-09T02:50:34.607Z,15.23
2024-05-09T02:53:06.125Z,15.19
2024-05-09T02:55:33.360Z,15.07
2024-05-09T02:58:00.365Z,14.70
2024-05-09T03:00:36.609Z,14.56
2024-05-09T03:03:07.512Z,13.85
2024-05-09T03:05:35.140Z,14.15
2024-05-09T03:08:02.342Z,14.10
2024-05-09T03:10:35.342Z,14.10
2024-05-09T03:13:04.483Z,14.29
2024-05-09T03:15:31.488Z,14.18
2024-05-09T03:17:58.617Z,14.05
2024-05-09T03:20:32.524Z,14.36
2024-05-09T03:23:01.816Z,14.03
2024-05-09T03:25:28.912Z,13.72
2024-05-09T03:27:55.938Z,14.09
2024-05-09T03:30:30.921Z,14.04
2024-05-09T03:33:06.724Z,14.32
2024-05-09T03:35:33.894Z,14.46
2024-05-09T03:38:00.970Z,14.62
2024-05-09T03:40:30.862Z,14.69
2024-05-09T03:42:58.444Z,14.61
2024-05-09T03:45:25.453Z,14.60
2024-05-09T03:47:52.918Z,14.70
2024-05-09T03:50:26.321Z,14.67
2024-05-09T03:53:00.659Z,14.53
2024-05-09T03:55:27.898Z,14.81
2024-05-09T03:57:54.876Z,14.85
2024-05-09T04:00:30.812Z,14.91
2024-05-09T04:03:04.511Z,14.93
2024-05-09T04:05:31.997Z,14.98
2024-05-09T04:07:59.160Z,14.78
2024-05-09T04:10:32.345Z,15.03
2024-05-09T04:13:01.128Z,15.03
2024-05-09T04:15:28.214Z,14.55
2024-05-09T04:17:55.523Z,14.41
2024-05-09T04:20:33.317Z,14.55
2024-05-09T04:23:05.704Z,13.62
2024-05-09T04:25:32.883Z,13.54
2024-05-09T04:27:59.957Z,13.96
2024-05-09T04:30:36.059Z,14.19
2024-05-09T04:33:07.687Z,14.30
2024-05-09T04:35:36.384Z,14.62
2024-05-09T04:38:03.651Z,14.66
2024-05-09T04:40:34.438Z,14.75
2024-05-09T04:43:03.554Z,14.93
2024-05-09T04:45:30.615Z,14.89
2024-05-09T04:47:58.059Z,14.38
2024-05-09T04:50:33.519Z,14.68
2024-05-09T04:53:05.050Z,14.46
2024-05-09T04:55:32.324Z,14.61
2024-05-09T04:57:59.344Z,14.36
2024-05-09T05:00:34.501Z,14.24
2024-05-09T05:03:04.191Z,13.78
2024-05-09T05:05:31.464Z,14.33
2024-05-09T05:07:58.588Z,14.13
2024-05-09T05:10:33.250Z,13.87
2024-05-09T05:13:02.980Z,13.77
2024-05-09T05:15:30.005Z,13.97
2024-05-09T05:17:57.104Z,13.95
2024-05-09T05:20:31.128Z,13.77
2024-05-09T05:23:01.049Z,13.61
2024-05-09T05:25:28.141Z,13.37
2024-05-09T05:27:55.125Z,13.05
2024-05-09T05:30:28.731Z,12.88
2024-05-09T05:33:00.342Z,12.49
2024-05-09T05:35:27.591Z,12.47
2024-05-09T05:37:54.716Z,12.64
2024-05-09T05:40:28.553Z,12.89
2024-05-09T05:43:02.728Z,12.87
2024-05-09T05:45:29.776Z,12.84
2024-05-09T05:47:56.938Z,12.91
2024-05-09T05:50:31.908Z,12.97
2024-05-09T05:53:02.737Z,12.95
2024-05-09T05:55:29.787Z,13.31
2024-05-09T05:57:56.806Z,13.85
2024-05-09T06:00:30.006Z,13.32
2024-05-09T06:03:04.641Z,13.75
2024-05-09T06:05:32.157Z,13.72
2024-05-09T06:07:59.563Z,13.96
2024-05-09T06:10:35.033Z,13.81
2024-05-09T06:13:06.103Z,13.81
2024-05-09T06:15:33.120Z,13.55
2024-05-09T06:18:00.334Z,13.46
2024-05-09T06:20:34.954Z,13.67
2024-05-09T06:23:04.803Z,14.24
2024-05-09T06:25:32.205Z,13.67
2024-05-09T06:27:59.337Z,13.35
2024-05-09T06:30:35.130Z,13.28
2024-05-09T06:33:06.512Z,13.44
2024-05-09T06:35:34.143Z,13.95
2024-05-09T06:38:01.617Z,13.63
2024-05-09T06:40:36.762Z,14.16
2024-05-09T06:43:06.182Z,13.53
2024-05-09T06:45:33.188Z,13.57
2024-05-09T06:48:00.445Z,13.83
2024-05-09T06:50:31.227Z,14.22
2024-05-09T06:53:02.829Z,14.08
2024-05-09T06:55:29.908Z,14.05
2024-05-09T06:57:56.955Z,13.74
2024-05-09T07:00:30.757Z,14.01
2024-05-09T07:03:05.995Z,14.71
2024-05-09T07:05:33.399Z,14.63
2024-05-09T07:08:00.588Z,14.77
2024-05-09T07:10:33.114Z,15.34
2024-05-09T07:13:02.446Z,15.35
2024-05-09T07:15:29.477Z,15.57
2024-05-09T07:17:56.670Z,15.09
2024-05-09T07:20:32.202Z,14.22
2024-05-09T07:23:01.938Z,14.20
2024-05-09T07:25:29.208Z,14.39
2024-05-09T07:27:56.352Z,14.16
2024-05-09T07:30:30.253Z,14.64
2024-05-09T07:33:00.613Z,14.66
2024-05-09T07:35:28.019Z,14.52
2024-05-09T07:37:55.153Z,14.80
2024-05-09T07:40:31.695Z,15.35
2024-05-09T07:43:02.612Z,15.79
2024-05-09T07:45:45.657Z,15.93
2024-05-09T07:49:59.707Z,15.87
2024-05-09T07:53:41.002Z,16.27
2024-05-09T07:56:12.258Z,16.64
2024-05-09T07:58:39.600Z,16.28
2024-05-09T08:01:06.823Z,16.88
2024-05-09T08:03:34.345Z,17.11
2024-05-09T08:06:01.559Z,16.93
2024-05-09T08:08:28.643Z,17.04
2024-05-09T08:10:55.797Z,17.53
2024-05-09T08:13:23.141Z,17.72
2024-05-09T08:15:50.340Z,17.35
2024-05-09T08:18:17.619Z,17.70
2024-05-09T08:20:44.786Z,17.65
2024-05-09T08:23:11.805Z,17.78
2024-05-09T08:25:38.929Z,17.32
2024-05-09T08:28:06.020Z,17.77
2024-05-09T08:30:37.050Z,18.05
2024-05-09T08:33:06.101Z,17.73
2024-05-09T08:35:33.969Z,16.74
2024-05-09T08:38:01.215Z,16.96
2024-05-09T08:40:34.548Z,18.15
2024-05-09T08:43:03.598Z,19.76
2024-05-09T08:45:30.630Z,21.28
2024-05-09T08:47:57.708Z,21.16
2024-05-09T08:50:32.291Z,21.74
2024-05-09T08:53:05.308Z,22.43
2024-05-09T08:55:32.365Z,23.33
2024-05-09T08:57:59.417Z,22.94
2024-05-09T09:00:34.217Z,22.70
2024-05-09T09:03:04.368Z,19.72
2024-05-09T09:05:32.009Z,20.72
2024-05-09T09:07:59.250Z,22.44
2024-05-09T09:10:31.913Z,23.66
2024-05-09T09:13:00.256Z,21.88
2024-05-09T09:15:27.459Z,22.17
2024-05-09T09:17:54.615Z,21.97
2024-05-09T09:20:28.730Z,22.50
2024-05-09T09:23:00.937Z,22.22
2024-05-09T09:25:27.960Z,22.64
2024-05-09T09:27:55.147Z,23.19
2024-05-09T09:30:34.457Z,23.46
2024-05-09T09:33:04.864Z,23.07
2024-05-09T09:35:32.153Z,23.27
2024-05-09T09:37:59.187Z,22.68
2024-05-09T09:40:32.100Z,21.78
2024-05-09T09:43:01.081Z,21.20
2024-05-09T09:45:28.198Z,21.83
2024-05-09T09:47:55.328Z,21.79
2024-05-09T09:50:27.942Z,21.38
2024-05-09T09:53:01.007Z,21.86
2024-05-09T09:55:28.038Z,21.64
2024-05-09T09:57:55.149Z,21.90
2024-05-09T10:00:27.230Z,23.10
2024-05-09T10:02:59.519Z,23.33
2024-05-09T10:05:27.069Z,23.94
2024-05-09T10:07:54.289Z,24.04
2024-05-09T10:10:27.362Z,24.15
2024-05-09T10:12:58.958Z,24.76
2024-05-09T10:15:26.170Z,24.46
2024-05-09T10:17:53.482Z,24.92
2024-05-09T10:20:24.732Z,24.78
2024-05-09T10:22:54.860Z,24.99
2024-05-09T10:25:22.097Z,24.71
2024-05-09T10:27:49.291Z,24.20
2024-05-09T10:30:25.387Z,23.79
2024-05-09T10:32:56.622Z,24.16
2024-05-09T10:35:23.800Z,22.93
2024-05-09T10:37:50.854Z,21.97
2024-05-09T10:40:25.774Z,21.41
2024-05-09T10:42:56.375Z,22.28
2024-05-09T10:45:23.534Z,22.58
2024-05-09T10:47:50.717Z,22.35
2024-05-09T10:50:25.256Z,21.67
2024-05-09T10:52:55.738Z,21.54
2024-05-09T10:55:22.942Z,21.91
2024-05-09T10:57:50.062Z,22.25
2024-05-09T11:00:27.049Z,22.39
2024-05-09T11:02:57.565Z,22.46
2024-05-09T11:05:24.787Z,22.34
2024-05-09T11:07:51.943Z,22.70
2024-05-09T11:10:27.235Z,22.67
2024-05-09T11:12:58.877Z,23.05
2024-05-09T11:15:25.985Z,23.00
2024-05-09T11:17:53.240Z,23.03
2024-05-09T11:20:26.883Z,22.83
2024-05-09T11:22:56.836Z,22.69
2024-05-09T11:25:23.901Z,22.54
2024-05-09T11:27:51.064Z,22.57
2024-05-09T11:30:26.639Z,21.34
2024-05-09T11:32:58.869Z,20.70
2024-05-09T11:35:25.978Z,20.92
2024-05-09T11:37:53.050Z,21.20
2024-05-09T11:40:25.571Z,19.97
2024-05-09T11:42:59.089Z,20.22
2024-05-09T11:45:26.144Z,21.15
2024-05-09T11:47:53.391Z,21.37
2024-05-09T11:50:27.163Z,21.41
2024-05-09T11:52:59.407Z,20.40
2024-05-09T11:55:28.208Z,20.28
2024-05-09T11:57:55.910Z,21.01
2024-05-09T12:00:33.714Z,21.16
2024-05-09T12:03:04.214Z,21.15
2024-05-09T12:05:31.414Z,20.81
2024-05-09T12:07:58.533Z,20.37
2024-05-09T12:10:32.690Z,20.55
2024-05-09T12:13:02.875Z,20.98
2024-05-09T12:15:30.609Z,20.89
2024-05-09T12:18:00.025Z,20.66
2024-05-09T12:20:35.827Z,20.72
2024-05-09T12:23:05.757Z,20.83
2024-05-09T12:25:32.764Z,20.89
2024-05-09T12:28:00.143Z,21.09
2024-05-09T12:30:35.584Z,21.15
2024-05-09T12:33:06.335Z,21.60
2024-05-09T12:35:33.566Z,21.69
2024-05-09T12:38:00.643Z,21.70
2024-05-09T12:40:35.493Z,20.93
2024-05-09T12:43:05.338Z,20.56
2024-05-09T12:45:32.584Z,21.22
2024-05-09T12:47:59.838Z,21.37
2024-05-09T12:50:32.498Z,21.60
2024-05-09T12:53:01.707Z,21.41
2024-05-09T12:55:33.858Z,21.94
2024-05-09T12:58:08.111Z,21.88
2024-05-09T13:00:35.610Z,21.76
2024-05-09T13:03:03.139Z,22.15
2024-05-09T13:05:30.588Z,21.59
2024-05-09T13:07:57.661Z,20.79
2024-05-09T13:10:31.641Z,20.61
2024-05-09T13:13:00.782Z,20.54
2024-05-09T13:15:28.720Z,21.31
2024-05-09T13:17:57.892Z,21.64
2024-05-09T13:20:32.771Z,21.22
2024-05-09T13:23:02.333Z,21.41
2024-05-09T13:25:29.536Z,21.48
2024-05-09T13:27:56.743Z,21.57
2024-05-09T13:30:29.924Z,22.03
2024-05-09T13:33:06.343Z,22.06
2024-05-09T13:35:34.048Z,22.18
2024-05-09T13:38:01.064Z,22.40
2024-05-09T13:40:33.469Z,21.63
2024-05-09T13:43:03.111Z,22.03
2024-05-09T13:45:30.318Z,21.60
2024-05-09T13:47:57.703Z,20.53
2024-05-09T13:50:33.160Z,20.80
2024-05-09T13:53:03.067Z,21.27
2024-05-09T13:55:30.168Z,21.42
2024-05-09T13:57:57.237Z,20.97
2024-05-09T14:02:54.843Z,20.44
2024-05-09T14:05:22.174Z,20.18
2024-05-09T14:07:49.243Z,20.86
2024-05-09T14:10:23.191Z,21.13
2024-05-09T14:12:55.734Z,21.18
2024-05-09T14:15:22.798Z,21.02
2024-05-09T14:17:49.825Z,21.08
2024-05-09T14:20:27.276Z,21.47
2024-05-09T14:22:57.855Z,22.07
2024-05-09T14:25:24.908Z,21.47
2024-05-09T14:27:52.040Z,21.91
2024-05-09T14:30:26.421Z,21.22
2024-05-09T14:33:01.575Z,20.83
2024-05-09T14:35:28.744Z,21.19
2024-05-09T14:37:55.778Z,21.34
2024-05-09T14:40:35.826Z,21.97
2024-05-09T14:43:08.495Z,22.67
2024-05-09T14:45:36.048Z,21.89
2024-05-09T14:48:03.716Z,21.94
2024-05-09T14:50:36.609Z,22.60
2024-05-09T14:53:06.762Z,22.43
2024-05-09T14:55:34.485Z,21.86
2024-05-09T14:58:01.581Z,21.19
2024-05-09T15:00:33.325Z,20.84
2024-05-09T15:03:03.346Z,20.94
2024-05-09T15:05:30.683Z,20.87
2024-05-09T15:07:57.975Z,21.03
2024-05-09T15:10:33.756Z,21.07
2024-05-09T15:13:03.621Z,20.72
2024-05-09T15:15:31.081Z,21.14
2024-05-09T15:17:58.617Z,21.64
2024-05-09T15:20:33.099Z,22.06
2024-05-09T15:23:03.100Z,21.31
2024-05-09T15:25:30.562Z,21.61
2024-05-09T15:27:57.973Z,22.04
2024-05-09T15:30:31.424Z,21.62
2024-05-09T15:33:00.880Z,21.31
2024-05-09T15:35:28.287Z,22.15
2024-05-09T15:37:55.275Z,21.47
2024-05-09T15:40:31.306Z,21.42
2024-05-09T15:43:05.755Z,21.47
2024-05-09T15:45:33.174Z,21.33
2024-05-09T15:48:00.455Z,21.72
2024-05-09T15:50:36.524Z,21.98
2024-05-09T15:53:08.073Z,22.50
2024-05-09T15:55:36.110Z,22.77
2024-05-09T15:58:04.181Z,21.73
2024-05-09T16:00:37.778Z,21.63
2024-05-09T16:03:09.148Z,21.74
2024-05-09T16:05:36.778Z,21.63
2024-05-09T16:08:04.144Z,21.38
2024-05-09T16:10:33.294Z,21.41
2024-05-09T16:13:02.299Z,21.16
2024-05-09T16:15:30.412Z,21.29
2024-05-09T16:17:57.657Z,21.43
2024-05-09T16:20:34.431Z,21.72
2024-05-09T16:23:06.835Z,21.65
2024-05-09T16:25:33.972Z,20.96
2024-05-09T16:28:01.288Z,20.91
2024-05-09T16:30:34.439Z,20.94
2024-05-09T16:33:03.378Z,20.83
2024-05-09T16:35:30.891Z,21.47
2024-05-09T16:37:57.921Z,21.20
2024-05-09T16:40:34.095Z,21.50
2024-05-09T16:43:06.120Z,21.45
2024-05-09T16:45:33.552Z,21.83
2024-05-09T16:48:00.968Z,22.19
2024-05-09T16:50:32.720Z,23.05
2024-05-09T16:53:01.685Z,22.26
2024-05-09T16:55:28.881Z,22.37
2024-05-09T16:57:57.466Z,21.58
2024-05-09T17:00:35.762Z,22.00
2024-05-09T17:03:08.293Z,22.28
2024-05-09T17:05:36.287Z,21.54
2024-05-09T17:08:03.820Z,21.77
2024-05-09T17:10:33.789Z,21.20
2024-05-09T17:13:02.583Z,20.67
2024-05-09T17:15:30.108Z,20.56
2024-05-09T17:17:57.244Z,20.79
2024-05-09T17:20:31.770Z,20.64
2024-05-09T17:23:02.185Z,20.53
2024-05-09T17:25:29.493Z,20.42
2024-05-09T17:27:56.964Z,20.30
2024-05-09T17:30:29.402Z,20.53
2024-05-09T17:33:02.580Z,20.69
2024-05-09T17:35:29.820Z,20.99
2024-05-09T17:37:56.969Z,20.52
2024-05-09T17:40:31.405Z,20.46
2024-05-09T17:43:03.086Z,20.08
2024-05-09T17:45:30.784Z,20.11
2024-05-09T17:47:58.507Z,20.13
2024-05-09T17:50:31.672Z,20.38
2024-05-09T17:53:03.010Z,20.08
2024-05-09T17:55:30.307Z,20.02
2024-05-09T17:57:57.802Z,20.33
2024-05-09T18:00:36.195Z,20.05
2024-05-09T18:03:07.177Z,19.95
2024-05-09T18:05:34.589Z,20.27
2024-05-09T18:08:01.671Z,20.12
2024-05-09T18:10:35.456Z,20.26
2024-05-09T18:13:06.265Z,20.00
2024-05-09T18:15:33.965Z,20.14
2024-05-09T18:18:01.386Z,20.46
2024-05-09T18:20:37.696Z,20.79
2024-05-09T18:23:10.321Z,20.46
2024-05-09T18:25:37.507Z,19.99
2024-05-09T18:28:04.830Z,20.18
2024-05-09T18:30:35.321Z,20.27
2024-05-09T18:33:04.726Z,20.09
2024-05-09T18:35:32.843Z,19.82
2024-05-09T18:37:59.829Z,19.83
2024-05-09T18:40:33.426Z,19.74
2024-05-09T18:43:03.688Z,20.14
2024-05-09T18:45:30.970Z,20.17
2024-05-09T18:47:58.339Z,20.15
2024-05-09T18:50:32.616Z,19.20
2024-05-09T18:53:04.052Z,19.29
2024-05-09T18:55:31.089Z,19.46
2024-05-09T18:57:58.153Z,19.76
2024-05-09T19:00:33.535Z,19.26
2024-05-09T19:03:04.281Z,19.50
2024-05-09T19:05:32.101Z,19.39
2024-05-09T19:07:59.314Z,19.27
2024-05-09T19:10:32.211Z,18.99
2024-05-09T19:13:04.323Z,19.29
2024-05-09T19:15:34.061Z,19.47
2024-05-09T19:18:01.282Z,19.68
2024-05-09T19:20:33.641Z,19.40
2024-05-09T19:23:02.444Z,19.12
2024-05-09T19:25:29.494Z,19.03
2024-05-09T19:27:56.618Z,18.52
2024-05-09T19:30:30.546Z,18.60
2024-05-09T19:33:05.368Z,18.62
2024-05-09T19:35:32.627Z,18.91
2024-05-09T19:37:59.948Z,18.84
2024-05-09T19:40:31.638Z,18.85
2024-05-09T19:43:00.734Z,18.50
2024-05-09T19:45:28.081Z,18.14
2024-05-09T19:47:55.206Z,18.14
2024-05-09T19:50:30.851Z,18.54
2024-05-09T19:53:04.444Z,18.58
2024-05-09T19:55:31.493Z,18.68
2024-05-09T19:57:59.890Z,18.51
2024-05-09T20:00:32.993Z,18.30
2024-05-09T20:03:03.201Z,18.35
2024-05-09T20:05:30.662Z,18.19
2024-05-09T20:07:57.939Z,18.13
2024-05-09T20:10:31.130Z,18.12
2024-05-09T20:13:00.118Z,18.16
2024-05-09T20:15:27.384Z,18.12
2024-05-09T20:17:55.275Z,17.95
2024-05-09T20:20:32.517Z,17.83
2024-05-09T20:23:04.692Z,17.64
2024-05-09T20:25:31.681Z,17.76
2024-05-09T20:27:58.871Z,17.68
2024-05-09T20:30:31.801Z,17.62
2024-05-09T20:33:00.911Z,17.75
2024-05-09T20:35:28.210Z,18.14
2024-05-09T20:37:55.352Z,17.70
2024-05-09T20:40:29.133Z,17.82
2024-05-09T20:43:00.624Z,17.86
2024-05-09T20:45:27.792Z,17.80
2024-05-09T20:47:54.885Z,17.79
2024-05-09T20:50:29.189Z,17.69
2024-05-09T20:53:03.964Z,17.68
2024-05-09T20:55:31.063Z,17.72
2024-05-09T20:57:58.133Z,17.80
2024-05-09T21:00:34.598Z,17.58
2024-05-09T21:03:07.224Z,18.27
2024-05-09T21:05:35.148Z,18.59
2024-05-09T21:08:02.941Z,18.88
2024-05-09T21:10:33.206Z,18.71
2024-05-09T21:13:02.588Z,18.99
2024-05-09T21:15:30.380Z,18.56
2024-05-09T21:17:57.474Z,18.92
2024-05-09T21:20:30.489Z,18.82
2024-05-09T21:22:59.380Z,18.91
2024-05-09T21:25:26.600Z,18.23
2024-05-09T21:27:54.027Z,18.68
2024-05-09T21:30:32.272Z,18.85
2024-05-09T21:33:07.823Z,18.63
2024-05-09T21:35:35.015Z,19.00
2024-05-09T21:38:02.022Z,18.84
2024-05-09T21:40:34.298Z,18.90
2024-05-09T21:43:03.301Z,18.91
2024-05-09T21:45:30.499Z,18.78
2024-05-09T21:47:57.645Z,18.91
2024-05-09T21:50:32.247Z,18.98
2024-05-09T21:53:06.564Z,19.08
2024-05-09T21:55:33.923Z,19.21
2024-05-09T21:58:01.053Z,19.21
2024-05-09T22:00:35.223Z,18.98
2024-05-09T22:03:05.147Z,19.13
2024-05-09T22:05:32.474Z,19.20
2024-05-09T22:07:59.646Z,19.34
2024-05-09T22:10:32.866Z,19.27
2024-05-09T22:13:02.603Z,19.22
2024-05-09T22:15:29.817Z,19.08
2024-05-09T22:17:57.636Z,19.09
2024-05-09T22:20:33.874Z,18.95
2024-05-09T22:23:04.739Z,18.82
2024-05-09T22:25:32.588Z,18.82
2024-05-09T22:28:00.076Z,18.98
2024-05-09T22:30:35.416Z,18.89
2024-05-09T22:33:06.061Z,18.96
2024-05-09T22:35:33.342Z,18.95
2024-05-09T22:38:00.492Z,18.94
2024-05-09T22:40:38.442Z,18.98
2024-05-09T22:43:13.693Z,18.91
2024-05-09T22:45:41.046Z,18.78
2024-05-09T22:48:08.711Z,18.73
2024-05-09T22:50:36.088Z,18.51
2024-05-09T22:53:03.152Z,18.10
2024-05-09T22:55:30.129Z,17.49
2024-05-09T22:57:57.256Z,18.01
2024-05-09T23:02:54.326Z,18.44
2024-05-09T23:05:21.489Z,18.63
2024-05-09T23:07:48.640Z,18.73
2024-05-09T23:10:21.423Z,18.77
2024-05-09T23:12:55.192Z,18.87
2024-05-09T23:15:22.206Z,18.81
2024-05-09T23:17:49.332Z,18.89
2024-05-09T23:20:22.088Z,18.93
2024-05-09T23:22:57.012Z,18.95
2024-05-09T23:25:24.115Z,18.86
2024-05-09T23:27:51.231Z,18.88
2024-05-09T23:30:28.482Z,18.89
2024-05-09T23:33:01.855Z,18.91
2024-05-09T23:35:28.917Z,18.85
2024-05-09T23:37:55.903Z,18.78
2024-05-09T23:40:23.654Z,18.63
2024-05-09T23:42:53.784Z,18.28
2024-05-09T23:45:20.789Z,18.11
2024-05-09T23:47:48.003Z,18.35
2024-05-09T23:50:20.533Z,18.43
2024-05-09T23:52:51.128Z,18.49
2024-05-09T23:55:18.445Z,18.23
2024-05-09T23:57:45.652Z,18.33
